sensor_id;sensor_type;location;lat;lon;timestamp;P1;durP1;ratioP1;P2;durP2;ratioP2
18102;SDS011;9178;51.120;6.192;2022-10-10T00:00:19;3.87;;;2.23;;
18102;SDS011;9178;51.120;6.192;2022-10-10T00:02:46;4.63;;;2.20;;
18102;SDS011;9178;51.120;6.192;2022-10-10T00:05:12;3.10;;;2.30;;
18102;SDS011;9178;51.120;6.192;2022-10-10T00:07:39;5.20;;;2.33;;
18102;SDS011;9178;51.120;6.192;2022-10-10T00:10:07;2.83;;;2.47;;
18102;SDS011;9178;51.120;6.192;2022-10-10T00:12:34;5.37;;;2.33;;
18102;SDS011;9178;51.120;6.192;2022-10-10T00:15:02;4.53;;;2.23;;
18102;SDS011;9178;51.120;6.192;2022-10-10T00:17:30;3.97;;;2.33;;
18102;SDS011;9178;51.120;6.192;2022-10-10T00:19:57;4.93;;;2.57;;
18102;SDS011;9178;51.120;6.192;2022-10-10T00:22:24;4.00;;;2.23;;
18102;SDS011;9178;51.120;6.192;2022-10-10T00:24:57;6.53;;;2.33;;
18102;SDS011;9178;51.120;6.192;2022-10-10T00:27:24;4.97;;;2.50;;
18102;SDS011;9178;51.120;6.192;2022-10-10T00:29:51;3.23;;;1.90;;
18102;SDS011;9178;51.120;6.192;2022-10-10T00:32:22;4.63;;;2.53;;
18102;SDS011;9178;51.120;6.192;2022-10-10T00:34:49;3.03;;;1.97;;
18102;SDS011;9178;51.120;6.192;2022-10-10T00:37:16;4.43;;;2.57;;
18102;SDS011;9178;51.120;6.192;2022-10-10T00:39:45;2.77;;;2.50;;
18102;SDS011;9178;51.120;6.192;2022-10-10T00:42:13;3.27;;;2.00;;
18102;SDS011;9178;51.120;6.192;2022-10-10T00:44:42;4.07;;;2.63;;
18102;SDS011;9178;51.120;6.192;2022-10-10T00:47:10;4.90;;;2.50;;
18102;SDS011;9178;51.120;6.192;2022-10-10T00:49:40;5.90;;;2.43;;
18102;SDS011;9178;51.120;6.192;2022-10-10T00:52:10;3.50;;;2.17;;
18102;SDS011;9178;51.120;6.192;2022-10-10T00:54:37;3.30;;;2.60;;
18102;SDS011;9178;51.120;6.192;2022-10-10T00:57:07;3.63;;;2.27;;
18102;SDS011;9178;51.120;6.192;2022-10-10T00:59:39;5.00;;;2.47;;
18102;SDS011;9178;51.120;6.192;2022-10-10T01:02:08;4.03;;;2.10;;
18102;SDS011;9178;51.120;6.192;2022-10-10T01:04:38;3.93;;;2.40;;
18102;SDS011;9178;51.120;6.192;2022-10-10T01:07:08;5.87;;;2.47;;
18102;SDS011;9178;51.120;6.192;2022-10-10T01:09:40;3.97;;;2.53;;
18102;SDS011;9178;51.120;6.192;2022-10-10T01:12:13;6.30;;;2.57;;
18102;SDS011;9178;51.120;6.192;2022-10-10T01:14:49;4.33;;;2.30;;
18102;SDS011;9178;51.120;6.192;2022-10-10T01:17:24;5.97;;;2.20;;
18102;SDS011;9178;51.120;6.192;2022-10-10T01:20:09;2.70;;;2.30;;
18102;SDS011;9178;51.120;6.192;2022-10-10T01:23:00;3.77;;;2.13;;
18102;SDS011;9178;51.120;6.192;2022-10-10T01:25:46;5.57;;;2.30;;
18102;SDS011;9178;51.120;6.192;2022-10-10T01:28:27;3.67;;;2.30;;
18102;SDS011;9178;51.120;6.192;2022-10-10T01:31:01;5.10;;;2.20;;
18102;SDS011;9178;51.120;6.192;2022-10-10T01:33:31;2.57;;;2.33;;
18102;SDS011;9178;51.120;6.192;2022-10-10T01:36:08;5.37;;;2.43;;
18102;SDS011;9178;51.120;6.192;2022-10-10T01:38:42;3.70;;;2.20;;
18102;SDS011;9178;51.120;6.192;2022-10-10T01:41:18;3.93;;;2.27;;
18102;SDS011;9178;51.120;6.192;2022-10-10T01:43:53;2.40;;;2.20;;
18102;SDS011;9178;51.120;6.192;2022-10-10T01:46:21;3.30;;;2.00;;
18102;SDS011;9178;51.120;6.192;2022-10-10T01:48:51;5.53;;;2.43;;
18102;SDS011;9178;51.120;6.192;2022-10-10T01:51:25;2.93;;;2.47;;
18102;SDS011;9178;51.120;6.192;2022-10-10T01:54:05;4.33;;;2.30;;
18102;SDS011;9178;51.120;6.192;2022-10-10T01:56:44;5.40;;;2.63;;
18102;SDS011;9178;51.120;6.192;2022-10-10T01:59:22;3.47;;;2.60;;
18102;SDS011;9178;51.120;6.192;2022-10-10T02:02:01;4.23;;;2.70;;
18102;SDS011;9178;51.120;6.192;2022-10-10T02:04:35;4.43;;;2.83;;
18102;SDS011;9178;51.120;6.192;2022-10-10T02:07:08;7.53;;;2.20;;
18102;SDS011;9178;51.120;6.192;2022-10-10T02:09:40;3.53;;;2.43;;
18102;SDS011;9178;51.120;6.192;2022-10-10T02:12:10;3.10;;;2.30;;
18102;SDS011;9178;51.120;6.192;2022-10-10T02:14:41;3.90;;;2.67;;
18102;SDS011;9178;51.120;6.192;2022-10-10T02:17:13;3.13;;;2.73;;
18102;SDS011;9178;51.120;6.192;2022-10-10T02:19:48;5.27;;;2.73;;
18102;SDS011;9178;51.120;6.192;2022-10-10T02:22:19;3.57;;;2.67;;
18102;SDS011;9178;51.120;6.192;2022-10-10T02:24:49;4.00;;;2.43;;
18102;SDS011;9178;51.120;6.192;2022-10-10T02:27:18;2.93;;;2.50;;
18102;SDS011;9178;51.120;6.192;2022-10-10T02:29:52;5.77;;;2.60;;
18102;SDS011;9178;51.120;6.192;2022-10-10T02:32:23;6.77;;;2.57;;
18102;SDS011;9178;51.120;6.192;2022-10-10T02:34:54;3.20;;;2.20;;
18102;SDS011;9178;51.120;6.192;2022-10-10T02:37:26;6.00;;;2.87;;
18102;SDS011;9178;51.120;6.192;2022-10-10T02:39:55;3.53;;;2.67;;
18102;SDS011;9178;51.120;6.192;2022-10-10T02:42:24;3.40;;;2.80;;
18102;SDS011;9178;51.120;6.192;2022-10-10T02:44:54;5.87;;;2.97;;
18102;SDS011;9178;51.120;6.192;2022-10-10T02:47:22;4.43;;;2.63;;
18102;SDS011;9178;51.120;6.192;2022-10-10T02:49:49;6.83;;;2.90;;
18102;SDS011;9178;51.120;6.192;2022-10-10T02:52:16;4.77;;;2.60;;
18102;SDS011;9178;51.120;6.192;2022-10-10T02:54:43;3.23;;;2.70;;
18102;SDS011;9178;51.120;6.192;2022-10-10T02:57:10;3.43;;;2.27;;
18102;SDS011;9178;51.120;6.192;2022-10-10T02:59:40;7.20;;;2.70;;
18102;SDS011;9178;51.120;6.192;2022-10-10T03:02:09;3.60;;;2.63;;
18102;SDS011;9178;51.120;6.192;2022-10-10T03:04:35;5.97;;;2.63;;
18102;SDS011;9178;51.120;6.192;2022-10-10T03:07:02;2.53;;;2.30;;
18102;SDS011;9178;51.120;6.192;2022-10-10T03:09:30;6.73;;;3.03;;
18102;SDS011;9178;51.120;6.192;2022-10-10T03:11:57;3.73;;;2.70;;
18102;SDS011;9178;51.120;6.192;2022-10-10T03:14:23;4.50;;;2.63;;
18102;SDS011;9178;51.120;6.192;2022-10-10T03:16:53;3.43;;;2.47;;
18102;SDS011;9178;51.120;6.192;2022-10-10T03:19:22;4.73;;;2.90;;
18102;SDS011;9178;51.120;6.192;2022-10-10T03:21:49;4.53;;;2.70;;
18102;SDS011;9178;51.120;6.192;2022-10-10T03:24:15;4.67;;;2.50;;
18102;SDS011;9178;51.120;6.192;2022-10-10T03:26:42;4.87;;;2.47;;
18102;SDS011;9178;51.120;6.192;2022-10-10T03:29:09;3.37;;;2.53;;
18102;SDS011;9178;51.120;6.192;2022-10-10T03:31:36;2.67;;;2.30;;
18102;SDS011;9178;51.120;6.192;2022-10-10T03:34:03;2.97;;;2.30;;
18102;SDS011;9178;51.120;6.192;2022-10-10T03:36:32;3.97;;;2.50;;
18102;SDS011;9178;51.120;6.192;2022-10-10T03:38:59;3.83;;;2.67;;
18102;SDS011;9178;51.120;6.192;2022-10-10T03:41:26;3.73;;;2.50;;
18102;SDS011;9178;51.120;6.192;2022-10-10T03:43:53;3.10;;;2.43;;
18102;SDS011;9178;51.120;6.192;2022-10-10T03:46:20;3.00;;;2.40;;
18102;SDS011;9178;51.120;6.192;2022-10-10T03:48:47;5.30;;;2.70;;
18102;SDS011;9178;51.120;6.192;2022-10-10T03:51:14;6.27;;;2.60;;
18102;SDS011;9178;51.120;6.192;2022-10-10T03:53:42;4.27;;;2.40;;
18102;SDS011;9178;51.120;6.192;2022-10-10T03:56:09;4.37;;;2.80;;
18102;SDS011;9178;51.120;6.192;2022-10-10T03:58:36;3.40;;;2.50;;
18102;SDS011;9178;51.120;6.192;2022-10-10T04:01:03;5.73;;;2.73;;
18102;SDS011;9178;51.120;6.192;2022-10-10T04:03:31;5.80;;;4.17;;
18102;SDS011;9178;51.120;6.192;2022-10-10T04:05:58;3.73;;;2.33;;
18102;SDS011;9178;51.120;6.192;2022-10-10T04:08:27;4.97;;;3.10;;
18102;SDS011;9178;51.120;6.192;2022-10-10T04:10:56;4.13;;;2.80;;
18102;SDS011;9178;51.120;6.192;2022-10-10T04:13:23;2.90;;;2.60;;
18102;SDS011;9178;51.120;6.192;2022-10-10T04:15:51;4.00;;;3.07;;
18102;SDS011;9178;51.120;6.192;2022-10-10T04:18:19;4.63;;;3.10;;
18102;SDS011;9178;51.120;6.192;2022-10-10T04:20:46;4.37;;;2.93;;
18102;SDS011;9178;51.120;6.192;2022-10-10T04:23:13;3.27;;;2.90;;
18102;SDS011;9178;51.120;6.192;2022-10-10T04:25:41;7.23;;;3.20;;
18102;SDS011;9178;51.120;6.192;2022-10-10T04:28:10;3.60;;;2.90;;
18102;SDS011;9178;51.120;6.192;2022-10-10T04:30:38;8.40;;;3.33;;
18102;SDS011;9178;51.120;6.192;2022-10-10T04:33:05;4.83;;;3.23;;
18102;SDS011;9178;51.120;6.192;2022-10-10T04:35:32;5.57;;;3.33;;
18102;SDS011;9178;51.120;6.192;2022-10-10T04:37:59;3.47;;;3.17;;
18102;SDS011;9178;51.120;6.192;2022-10-10T04:40:26;6.63;;;2.90;;
18102;SDS011;9178;51.120;6.192;2022-10-10T04:42:53;7.30;;;3.27;;
18102;SDS011;9178;51.120;6.192;2022-10-10T04:45:22;4.80;;;3.33;;
18102;SDS011;9178;51.120;6.192;2022-10-10T04:47:51;6.20;;;3.13;;
18102;SDS011;9178;51.120;6.192;2022-10-10T04:50:18;4.37;;;2.97;;
18102;SDS011;9178;51.120;6.192;2022-10-10T04:52:45;4.53;;;3.40;;
18102;SDS011;9178;51.120;6.192;2022-10-10T04:55:11;4.97;;;3.97;;
18102;SDS011;9178;51.120;6.192;2022-10-10T04:57:38;4.23;;;3.40;;
18102;SDS011;9178;51.120;6.192;2022-10-10T05:00:06;4.27;;;3.03;;
18102;SDS011;9178;51.120;6.192;2022-10-10T05:02:35;5.03;;;3.30;;
18102;SDS011;9178;51.120;6.192;2022-10-10T05:05:03;5.20;;;3.10;;
18102;SDS011;9178;51.120;6.192;2022-10-10T05:07:30;5.30;;;3.30;;
18102;SDS011;9178;51.120;6.192;2022-10-10T05:09:57;4.43;;;3.50;;
18102;SDS011;9178;51.120;6.192;2022-10-10T05:12:24;4.30;;;3.47;;
18102;SDS011;9178;51.120;6.192;2022-10-10T05:14:51;5.73;;;3.67;;
18102;SDS011;9178;51.120;6.192;2022-10-10T05:17:18;6.40;;;3.73;;
18102;SDS011;9178;51.120;6.192;2022-10-10T05:19:46;4.33;;;3.17;;
18102;SDS011;9178;51.120;6.192;2022-10-10T05:22:13;4.70;;;3.53;;
18102;SDS011;9178;51.120;6.192;2022-10-10T05:24:40;4.63;;;3.17;;
18102;SDS011;9178;51.120;6.192;2022-10-10T05:27:07;5.60;;;3.30;;
18102;SDS011;9178;51.120;6.192;2022-10-10T05:29:34;5.93;;;3.00;;
18102;SDS011;9178;51.120;6.192;2022-10-10T05:32:00;9.90;;;3.40;;
18102;SDS011;9178;51.120;6.192;2022-10-10T05:34:27;5.00;;;3.13;;
18102;SDS011;9178;51.120;6.192;2022-10-10T05:36:55;4.50;;;3.07;;
18102;SDS011;9178;51.120;6.192;2022-10-10T05:39:22;9.37;;;3.17;;
18102;SDS011;9178;51.120;6.192;2022-10-10T05:41:50;6.37;;;3.13;;
18102;SDS011;9178;51.120;6.192;2022-10-10T05:44:16;5.37;;;3.13;;
18102;SDS011;9178;51.120;6.192;2022-10-10T05:46:43;3.73;;;2.87;;
18102;SDS011;9178;51.120;6.192;2022-10-10T05:49:13;3.17;;;2.70;;
18102;SDS011;9178;51.120;6.192;2022-10-10T05:51:40;3.97;;;3.17;;
18102;SDS011;9178;51.120;6.192;2022-10-10T05:54:08;3.40;;;2.63;;
18102;SDS011;9178;51.120;6.192;2022-10-10T05:56:35;4.80;;;3.20;;
18102;SDS011;9178;51.120;6.192;2022-10-10T05:59:02;4.47;;;3.50;;
18102;SDS011;9178;51.120;6.192;2022-10-10T06:01:32;5.07;;;3.37;;
18102;SDS011;9178;51.120;6.192;2022-10-10T06:04:03;5.40;;;3.20;;
18102;SDS011;9178;51.120;6.192;2022-10-10T06:06:30;6.27;;;3.70;;
18102;SDS011;9178;51.120;6.192;2022-10-10T06:08:57;5.47;;;3.37;;
18102;SDS011;9178;51.120;6.192;2022-10-10T06:11:28;5.90;;;3.80;;
18102;SDS011;9178;51.120;6.192;2022-10-10T06:13:55;6.17;;;3.67;;
18102;SDS011;9178;51.120;6.192;2022-10-10T06:16:22;3.67;;;3.37;;
18102;SDS011;9178;51.120;6.192;2022-10-10T06:18:51;7.57;;;3.67;;
18102;SDS011;9178;51.120;6.192;2022-10-10T06:21:20;5.37;;;3.40;;
18102;SDS011;9178;51.120;6.192;2022-10-10T06:23:47;6.33;;;3.53;;
18102;SDS011;9178;51.120;6.192;2022-10-10T06:26:14;5.53;;;3.50;;
18102;SDS011;9178;51.120;6.192;2022-10-10T06:28:43;4.90;;;3.57;;
18102;SDS011;9178;51.120;6.192;2022-10-10T06:31:10;3.97;;;2.90;;
18102;SDS011;9178;51.120;6.192;2022-10-10T06:33:39;5.00;;;3.60;;
18102;SDS011;9178;51.120;6.192;2022-10-10T06:36:09;6.80;;;3.43;;
18102;SDS011;9178;51.120;6.192;2022-10-10T06:38:37;5.57;;;3.20;;
18102;SDS011;9178;51.120;6.192;2022-10-10T06:41:05;7.13;;;3.40;;
18102;SDS011;9178;51.120;6.192;2022-10-10T06:43:33;6.87;;;4.20;;
18102;SDS011;9178;51.120;6.192;2022-10-10T06:46:02;7.43;;;3.53;;
18102;SDS011;9178;51.120;6.192;2022-10-10T06:48:29;8.60;;;3.50;;
18102;SDS011;9178;51.120;6.192;2022-10-10T06:50:59;5.93;;;3.70;;
18102;SDS011;9178;51.120;6.192;2022-10-10T06:53:27;8.73;;;3.47;;
18102;SDS011;9178;51.120;6.192;2022-10-10T06:55:54;5.00;;;4.20;;
18102;SDS011;9178;51.120;6.192;2022-10-10T06:58:22;5.27;;;3.50;;
18102;SDS011;9178;51.120;6.192;2022-10-10T07:00:50;9.03;;;3.87;;
18102;SDS011;9178;51.120;6.192;2022-10-10T07:03:22;5.87;;;4.50;;
18102;SDS011;9178;51.120;6.192;2022-10-10T07:05:49;6.13;;;4.00;;
18102;SDS011;9178;51.120;6.192;2022-10-10T07:08:20;7.60;;;4.00;;
18102;SDS011;9178;51.120;6.192;2022-10-10T07:10:48;6.57;;;4.40;;
18102;SDS011;9178;51.120;6.192;2022-10-10T07:13:16;7.53;;;4.43;;
18102;SDS011;9178;51.120;6.192;2022-10-10T07:15:43;7.60;;;4.10;;
18102;SDS011;9178;51.120;6.192;2022-10-10T07:18:10;9.33;;;3.70;;
18102;SDS011;9178;51.120;6.192;2022-10-10T07:20:38;10.57;;;4.27;;
18102;SDS011;9178;51.120;6.192;2022-10-10T07:23:05;7.40;;;4.40;;
18102;SDS011;9178;51.120;6.192;2022-10-10T07:25:32;7.30;;;4.13;;
18102;SDS011;9178;51.120;6.192;2022-10-10T07:27:59;7.80;;;4.43;;
18102;SDS011;9178;51.120;6.192;2022-10-10T07:30:26;7.23;;;3.93;;
18102;SDS011;9178;51.120;6.192;2022-10-10T07:32:53;6.67;;;3.63;;
18102;SDS011;9178;51.120;6.192;2022-10-10T07:35:20;6.60;;;4.10;;
18102;SDS011;9178;51.120;6.192;2022-10-10T07:37:51;8.03;;;3.60;;
18102;SDS011;9178;51.120;6.192;2022-10-10T07:40:19;8.17;;;4.30;;
18102;SDS011;9178;51.120;6.192;2022-10-10T07:42:45;6.77;;;3.73;;
18102;SDS011;9178;51.120;6.192;2022-10-10T07:45:12;8.40;;;4.20;;
18102;SDS011;9178;51.120;6.192;2022-10-10T07:47:39;5.97;;;3.60;;
18102;SDS011;9178;51.120;6.192;2022-10-10T07:50:06;7.13;;;4.47;;
18102;SDS011;9178;51.120;6.192;2022-10-10T07:52:33;5.20;;;4.00;;
18102;SDS011;9178;51.120;6.192;2022-10-10T07:55:02;8.40;;;3.50;;
18102;SDS011;9178;51.120;6.192;2022-10-10T07:57:29;6.73;;;3.70;;
18102;SDS011;9178;51.120;6.192;2022-10-10T07:59:59;8.07;;;3.10;;
18102;SDS011;9178;51.120;6.192;2022-10-10T08:02:26;3.60;;;3.00;;
18102;SDS011;9178;51.120;6.192;2022-10-10T08:04:53;4.33;;;3.10;;
18102;SDS011;9178;51.120;6.192;2022-10-10T08:07:20;6.03;;;2.93;;
18102;SDS011;9178;51.120;6.192;2022-10-10T08:09:47;4.43;;;2.57;;
18102;SDS011;9178;51.120;6.192;2022-10-10T08:12:16;5.27;;;2.83;;
18102;SDS011;9178;51.120;6.192;2022-10-10T08:14:42;5.87;;;2.80;;
18102;SDS011;9178;51.120;6.192;2022-10-10T08:17:09;4.23;;;2.53;;
18102;SDS011;9178;51.120;6.192;2022-10-10T08:19:36;5.80;;;2.97;;
18102;SDS011;9178;51.120;6.192;2022-10-10T08:22:03;6.13;;;2.87;;
18102;SDS011;9178;51.120;6.192;2022-10-10T08:24:30;5.60;;;3.40;;
18102;SDS011;9178;51.120;6.192;2022-10-10T08:26:57;8.00;;;2.80;;
18102;SDS011;9178;51.120;6.192;2022-10-10T08:29:25;3.70;;;2.43;;
18102;SDS011;9178;51.120;6.192;2022-10-10T08:31:52;5.83;;;2.33;;
18102;SDS011;9178;51.120;6.192;2022-10-10T08:34:19;4.40;;;2.60;;
18102;SDS011;9178;51.120;6.192;2022-10-10T08:36:46;5.57;;;2.77;;
18102;SDS011;9178;51.120;6.192;2022-10-10T08:39:12;8.27;;;2.70;;
18102;SDS011;9178;51.120;6.192;2022-10-10T08:41:42;4.37;;;2.80;;
18102;SDS011;9178;51.120;6.192;2022-10-10T08:44:15;8.00;;;2.77;;
18102;SDS011;9178;51.120;6.192;2022-10-10T08:46:49;5.40;;;2.87;;
18102;SDS011;9178;51.120;6.192;2022-10-10T08:49:21;6.93;;;2.27;;
18102;SDS011;9178;51.120;6.192;2022-10-10T08:51:54;6.70;;;2.80;;
18102;SDS011;9178;51.120;6.192;2022-10-10T08:54:26;4.83;;;2.63;;
18102;SDS011;9178;51.120;6.192;2022-10-10T08:56:58;3.10;;;2.20;;
18102;SDS011;9178;51.120;6.192;2022-10-10T08:59:26;5.40;;;2.23;;
18102;SDS011;9178;51.120;6.192;2022-10-10T09:01:59;4.87;;;2.47;;
18102;SDS011;9178;51.120;6.192;2022-10-10T09:04:43;3.73;;;2.23;;
18102;SDS011;9178;51.120;6.192;2022-10-10T09:07:13;5.47;;;2.80;;
18102;SDS011;9178;51.120;6.192;2022-10-10T09:09:52;4.67;;;2.90;;
18102;SDS011;9178;51.120;6.192;2022-10-10T09:12:27;4.80;;;2.83;;
18102;SDS011;9178;51.120;6.192;2022-10-10T09:15:04;4.93;;;2.30;;
18102;SDS011;9178;51.120;6.192;2022-10-10T09:17:41;7.87;;;3.00;;
18102;SDS011;9178;51.120;6.192;2022-10-10T09:20:17;6.70;;;2.53;;
18102;SDS011;9178;51.120;6.192;2022-10-10T09:22:57;4.57;;;2.30;;
18102;SDS011;9178;51.120;6.192;2022-10-10T09:25:28;5.43;;;2.27;;
18102;SDS011;9178;51.120;6.192;2022-10-10T09:28:00;5.20;;;2.20;;
18102;SDS011;9178;51.120;6.192;2022-10-10T09:30:32;4.97;;;2.57;;
18102;SDS011;9178;51.120;6.192;2022-10-10T09:33:05;5.00;;;2.20;;
18102;SDS011;9178;51.120;6.192;2022-10-10T09:35:41;8.30;;;2.90;;
18102;SDS011;9178;51.120;6.192;2022-10-10T09:38:14;5.30;;;2.93;;
18102;SDS011;9178;51.120;6.192;2022-10-10T09:40:55;7.73;;;2.40;;
18102;SDS011;9178;51.120;6.192;2022-10-10T09:43:26;6.33;;;2.50;;
18102;SDS011;9178;51.120;6.192;2022-10-10T09:45:55;7.00;;;2.67;;
18102;SDS011;9178;51.120;6.192;2022-10-10T09:48:26;5.87;;;2.13;;
18102;SDS011;9178;51.120;6.192;2022-10-10T09:50:54;7.27;;;2.27;;
18102;SDS011;9178;51.120;6.192;2022-10-10T09:53:21;5.40;;;1.97;;
18102;SDS011;9178;51.120;6.192;2022-10-10T09:55:48;3.40;;;1.83;;
18102;SDS011;9178;51.120;6.192;2022-10-10T09:58:19;4.00;;;2.10;;
18102;SDS011;9178;51.120;6.192;2022-10-10T10:00:52;5.47;;;2.10;;
18102;SDS011;9178;51.120;6.192;2022-10-10T10:03:20;4.25;;;2.05;;
18102;SDS011;9178;51.120;6.192;2022-10-10T10:05:58;5.78;;;1.98;;
18102;SDS011;9178;51.120;6.192;2022-10-10T10:08:27;4.78;;;1.85;;
18102;SDS011;9178;51.120;6.192;2022-10-10T10:10:56;5.22;;;1.67;;
18102;SDS011;9178;51.120;6.192;2022-10-10T10:13:24;2.80;;;1.83;;
18102;SDS011;9178;51.120;6.192;2022-10-10T10:15:57;6.20;;;2.03;;
18102;SDS011;9178;51.120;6.192;2022-10-10T10:18:36;9.85;;;2.53;;
18102;SDS011;9178;51.120;6.192;2022-10-10T10:21:11;5.10;;;1.95;;
18102;SDS011;9178;51.120;6.192;2022-10-10T10:23:41;6.75;;;2.13;;
18102;SDS011;9178;51.120;6.192;2022-10-10T10:26:16;4.75;;;1.40;;
18102;SDS011;9178;51.120;6.192;2022-10-10T10:28:44;7.75;;;2.10;;
18102;SDS011;9178;51.120;6.192;2022-10-10T10:31:14;9.77;;;2.28;;
18102;SDS011;9178;51.120;6.192;2022-10-10T10:33:48;6.53;;;1.80;;
18102;SDS011;9178;51.120;6.192;2022-10-10T10:36:24;11.20;;;3.22;;
18102;SDS011;9178;51.120;6.192;2022-10-10T10:39:02;8.45;;;1.85;;
18102;SDS011;9178;51.120;6.192;2022-10-10T10:41:37;5.47;;;2.00;;
18102;SDS011;9178;51.120;6.192;2022-10-10T10:47:03;6.93;;;2.10;;
18102;SDS011;9178;51.120;6.192;2022-10-10T10:49:42;5.22;;;2.10;;
18102;SDS011;9178;51.120;6.192;2022-10-10T10:52:21;6.32;;;1.83;;
18102;SDS011;9178;51.120;6.192;2022-10-10T10:55:16;8.18;;;2.33;;
18102;SDS011;9178;51.120;6.192;2022-10-10T10:57:54;6.40;;;2.10;;
18102;SDS011;9178;51.120;6.192;2022-10-10T11:00:31;4.10;;;2.03;;
18102;SDS011;9178;51.120;6.192;2022-10-10T11:03:07;6.32;;;2.05;;
18102;SDS011;9178;51.120;6.192;2022-10-10T11:05:43;5.70;;;2.53;;
18102;SDS011;9178;51.120;6.192;2022-10-10T11:08:23;6.43;;;1.73;;
18102;SDS011;9178;51.120;6.192;2022-10-10T11:11:08;6.38;;;1.80;;
18102;SDS011;9178;51.120;6.192;2022-10-10T11:13:45;4.60;;;1.80;;
18102;SDS011;9178;51.120;6.192;2022-10-10T11:16:21;7.32;;;2.20;;
18102;SDS011;9178;51.120;6.192;2022-10-10T11:18:58;4.63;;;2.03;;
18102;SDS011;9178;51.120;6.192;2022-10-10T11:21:33;5.28;;;1.70;;
18102;SDS011;9178;51.120;6.192;2022-10-10T11:24:08;8.02;;;1.83;;
18102;SDS011;9178;51.120;6.192;2022-10-10T11:26:39;6.78;;;2.25;;
18102;SDS011;9178;51.120;6.192;2022-10-10T11:29:12;5.97;;;1.88;;
18102;SDS011;9178;51.120;6.192;2022-10-10T11:31:43;7.13;;;1.98;;
18102;SDS011;9178;51.120;6.192;2022-10-10T11:34:17;7.18;;;2.15;;
18102;SDS011;9178;51.120;6.192;2022-10-10T11:36:47;6.35;;;1.85;;
18102;SDS011;9178;51.120;6.192;2022-10-10T11:39:18;6.68;;;2.00;;
18102;SDS011;9178;51.120;6.192;2022-10-10T11:41:50;4.32;;;1.83;;
18102;SDS011;9178;51.120;6.192;2022-10-10T11:44:20;6.15;;;1.95;;
18102;SDS011;9178;51.120;6.192;2022-10-10T11:46:54;9.23;;;1.98;;
18102;SDS011;9178;51.120;6.192;2022-10-10T11:49:27;7.32;;;2.63;;
18102;SDS011;9178;51.120;6.192;2022-10-10T11:52:02;6.18;;;2.33;;
18102;SDS011;9178;51.120;6.192;2022-10-10T11:54:43;13.35;;;2.20;;
18102;SDS011;9178;51.120;6.192;2022-10-10T11:57:15;12.25;;;2.22;;
18102;SDS011;9178;51.120;6.192;2022-10-10T11:59:47;12.93;;;2.15;;
18102;SDS011;9178;51.120;6.192;2022-10-10T12:02:19;10.55;;;2.10;;
18102;SDS011;9178;51.120;6.192;2022-10-10T12:04:48;5.45;;;1.90;;
18102;SDS011;9178;51.120;6.192;2022-10-10T12:07:17;7.13;;;1.90;;
18102;SDS011;9178;51.120;6.192;2022-10-10T12:09:51;8.68;;;2.58;;
18102;SDS011;9178;51.120;6.192;2022-10-10T12:12:22;8.77;;;1.80;;
18102;SDS011;9178;51.120;6.192;2022-10-10T12:14:52;8.05;;;2.00;;
18102;SDS011;9178;51.120;6.192;2022-10-10T12:17:23;5.13;;;1.90;;
18102;SDS011;9178;51.120;6.192;2022-10-10T12:19:53;5.18;;;1.70;;
18102;SDS011;9178;51.120;6.192;2022-10-10T12:22:22;6.10;;;1.80;;
18102;SDS011;9178;51.120;6.192;2022-10-10T12:25:20;8.18;;;2.50;;
18102;SDS011;9178;51.120;6.192;2022-10-10T12:28:03;6.97;;;1.77;;
18102;SDS011;9178;51.120;6.192;2022-10-10T12:34:01;7.80;;;2.10;;
18102;SDS011;9178;51.120;6.192;2022-10-10T12:39:58;10.38;;;2.33;;
18102;SDS011;9178;51.120;6.192;2022-10-10T12:42:30;12.25;;;2.67;;
18102;SDS011;9178;51.120;6.192;2022-10-10T12:44:58;8.50;;;2.80;;
18102;SDS011;9178;51.120;6.192;2022-10-10T12:47:26;9.45;;;2.30;;
18102;SDS011;9178;51.120;6.192;2022-10-10T12:50:17;7.25;;;2.30;;
18102;SDS011;9178;51.120;6.192;2022-10-10T12:52:47;7.85;;;2.10;;
18102;SDS011;9178;51.120;6.192;2022-10-10T12:55:18;6.22;;;2.40;;
18102;SDS011;9178;51.120;6.192;2022-10-10T12:57:48;5.40;;;1.90;;
18102;SDS011;9178;51.120;6.192;2022-10-10T13:00:18;8.93;;;2.40;;
18102;SDS011;9178;51.120;6.192;2022-10-10T13:02:47;9.65;;;2.13;;
18102;SDS011;9178;51.120;6.192;2022-10-10T13:05:17;7.85;;;2.38;;
18102;SDS011;9178;51.120;6.192;2022-10-10T13:07:49;6.97;;;1.98;;
18102;SDS011;9178;51.120;6.192;2022-10-10T13:10:20;10.43;;;2.15;;
18102;SDS011;9178;51.120;6.192;2022-10-10T13:12:58;8.73;;;2.33;;
18102;SDS011;9178;51.120;6.192;2022-10-10T13:15:27;7.57;;;2.25;;
18102;SDS011;9178;51.120;6.192;2022-10-10T13:17:55;10.82;;;2.40;;
18102;SDS011;9178;51.120;6.192;2022-10-10T13:20:25;10.32;;;2.53;;
18102;SDS011;9178;51.120;6.192;2022-10-10T13:23:01;7.00;;;2.30;;
18102;SDS011;9178;51.120;6.192;2022-10-10T13:25:30;11.23;;;2.15;;
18102;SDS011;9178;51.120;6.192;2022-10-10T13:27:59;9.70;;;2.33;;
18102;SDS011;9178;51.120;6.192;2022-10-10T13:30:26;11.38;;;2.30;;
18102;SDS011;9178;51.120;6.192;2022-10-10T13:32:53;6.13;;;1.80;;
18102;SDS011;9178;51.120;6.192;2022-10-10T13:35:22;5.60;;;2.42;;
18102;SDS011;9178;51.120;6.192;2022-10-10T13:37:52;8.35;;;1.98;;
18102;SDS011;9178;51.120;6.192;2022-10-10T13:40:20;10.20;;;2.20;;
18102;SDS011;9178;51.120;6.192;2022-10-10T13:42:48;7.43;;;2.00;;
18102;SDS011;9178;51.120;6.192;2022-10-10T13:45:31;5.13;;;2.28;;
18102;SDS011;9178;51.120;6.192;2022-10-10T13:48:15;9.43;;;1.90;;
18102;SDS011;9178;51.120;6.192;2022-10-10T13:51:03;5.97;;;1.80;;
18102;SDS011;9178;51.120;6.192;2022-10-10T13:53:32;4.88;;;1.98;;
18102;SDS011;9178;51.120;6.192;2022-10-10T13:56:03;7.97;;;2.55;;
18102;SDS011;9178;51.120;6.192;2022-10-10T13:58:37;8.82;;;1.98;;
18102;SDS011;9178;51.120;6.192;2022-10-10T14:01:16;8.60;;;2.35;;
18102;SDS011;9178;51.120;6.192;2022-10-10T14:03:53;6.53;;;1.67;;
18102;SDS011;9178;51.120;6.192;2022-10-10T14:06:23;4.53;;;1.85;;
18102;SDS011;9178;51.120;6.192;2022-10-10T14:08:52;6.40;;;2.13;;
18102;SDS011;9178;51.120;6.192;2022-10-10T14:11:22;5.55;;;1.60;;
18102;SDS011;9178;51.120;6.192;2022-10-10T14:13:54;6.75;;;1.80;;
18102;SDS011;9178;51.120;6.192;2022-10-10T14:16:27;11.30;;;2.35;;
18102;SDS011;9178;51.120;6.192;2022-10-10T14:18:54;6.65;;;1.73;;
18102;SDS011;9178;51.120;6.192;2022-10-10T14:21:20;5.60;;;2.45;;
18102;SDS011;9178;51.120;6.192;2022-10-10T14:23:47;6.82;;;1.90;;
18102;SDS011;9178;51.120;6.192;2022-10-10T14:26:15;6.53;;;2.13;;
18102;SDS011;9178;51.120;6.192;2022-10-10T14:28:44;5.95;;;2.38;;
18102;SDS011;9178;51.120;6.192;2022-10-10T14:31:11;9.55;;;2.25;;
18102;SDS011;9178;51.120;6.192;2022-10-10T14:33:43;7.15;;;1.90;;
18102;SDS011;9178;51.120;6.192;2022-10-10T14:36:10;7.55;;;3.13;;
18102;SDS011;9178;51.120;6.192;2022-10-10T14:38:38;4.65;;;1.73;;
18102;SDS011;9178;51.120;6.192;2022-10-10T14:41:05;6.05;;;2.08;;
18102;SDS011;9178;51.120;6.192;2022-10-10T14:43:32;7.13;;;2.03;;
18102;SDS011;9178;51.120;6.192;2022-10-10T14:45:58;5.72;;;1.70;;
18102;SDS011;9178;51.120;6.192;2022-10-10T14:48:26;7.68;;;2.15;;
18102;SDS011;9178;51.120;6.192;2022-10-10T14:50:54;8.75;;;2.22;;
18102;SDS011;9178;51.120;6.192;2022-10-10T14:53:22;4.75;;;2.10;;
18102;SDS011;9178;51.120;6.192;2022-10-10T14:55:49;8.88;;;2.03;;
18102;SDS011;9178;51.120;6.192;2022-10-10T14:58:16;4.40;;;1.95;;
18102;SDS011;9178;51.120;6.192;2022-10-10T15:00:44;4.65;;;1.90;;
18102;SDS011;9178;51.120;6.192;2022-10-10T15:03:11;6.30;;;2.08;;
18102;SDS011;9178;51.120;6.192;2022-10-10T15:05:38;6.35;;;2.10;;
18102;SDS011;9178;51.120;6.192;2022-10-10T15:08:06;5.68;;;2.15;;
18102;SDS011;9178;51.120;6.192;2022-10-10T15:10:33;6.57;;;1.92;;
18102;SDS011;9178;51.120;6.192;2022-10-10T15:13:00;6.57;;;1.88;;
18102;SDS011;9178;51.120;6.192;2022-10-10T15:15:27;7.15;;;1.83;;
18102;SDS011;9178;51.120;6.192;2022-10-10T15:17:55;7.68;;;1.77;;
18102;SDS011;9178;51.120;6.192;2022-10-10T15:20:22;6.20;;;2.03;;
18102;SDS011;9178;51.120;6.192;2022-10-10T15:22:54;6.35;;;1.90;;
18102;SDS011;9178;51.120;6.192;2022-10-10T15:25:23;8.43;;;2.03;;
18102;SDS011;9178;51.120;6.192;2022-10-10T15:27:50;7.55;;;1.80;;